Airport View

Enter AWOS ICAO identifier for current METAR.

ex. KFNL

KVVV 101555Z AUTO 20003KT 10SM CLR 22/12 A3000 RMK AO2

10 Aug 2020 16:07

Frequency: 119.225

Phone: 320-839-2363

Other Area AWOS: KAQP - KDXX - KMOX - KETH

TAF KATY 101140Z 1012/1112 VRB04KT P6SM SCT200 FM101500 29010KT P6SM SKC FM110100 21005KT P6SM SKC